createdAt,value
2019-04-03T00:00:40.730Z,46.12
2019-04-03T00:03:08.769Z,46.31
2019-04-03T00:05:36.856Z,46.15
2019-04-03T00:08:06.430Z,46.52
2019-04-03T00:10:35.945Z,46.30
2019-04-03T00:13:05.411Z,46.46
2019-04-03T00:15:33.561Z,46.42
2019-04-03T00:18:01.406Z,46.27
2019-04-03T00:20:29.520Z,46.76
2019-04-03T00:22:57.688Z,46.88
2019-04-03T00:25:25.661Z,46.87
2019-04-03T00:27:53.623Z,47.19
2019-04-03T00:30:22.479Z,47.16
2019-04-03T00:32:53.171Z,47.30
2019-04-03T00:35:23.958Z,47.13
2019-04-03T00:37:53.589Z,47.42
2019-04-03T00:40:22.716Z,47.76
2019-04-03T00:42:54.099Z,47.67
2019-04-03T00:45:24.021Z,47.51
2019-04-03T00:47:52.240Z,47.64
2019-04-03T00:50:20.561Z,47.97
2019-04-03T00:52:48.658Z,47.98
2019-04-03T00:55:17.418Z,47.99
2019-04-03T00:57:45.335Z,48.18
2019-04-03T01:00:15.146Z,48.61
2019-04-03T01:02:43.361Z,48.43
2019-04-03T01:05:11.853Z,48.49
2019-04-03T01:07:39.949Z,48.76
2019-04-03T01:10:08.610Z,48.85
2019-04-03T01:12:36.554Z,48.52
2019-04-03T01:15:06.261Z,48.90
2019-04-03T01:17:34.911Z,48.54
2019-04-03T01:20:04.566Z,48.80
2019-04-03T01:22:33.984Z,48.85
2019-04-03T01:25:01.991Z,48.98
2019-04-03T01:27:29.942Z,49.32
2019-04-03T01:29:58.117Z,49.07
2019-04-03T01:32:26.242Z,49.63
2019-04-03T01:34:54.161Z,50.03
2019-04-03T01:37:25.934Z,50.06
2019-04-03T01:39:54.022Z,49.89
2019-04-03T01:42:22.563Z,50.50
2019-04-03T01:44:51.063Z,50.32
2019-04-03T01:47:18.997Z,50.29
2019-04-03T01:49:47.048Z,50.18
2019-04-03T01:52:15.124Z,50.77
2019-04-03T01:54:43.930Z,50.64
2019-04-03T01:57:11.867Z,50.56
2019-04-03T01:59:40.304Z,51.27
2019-04-03T02:02:09.127Z,51.54
2019-04-03T02:04:37.317Z,51.33
2019-04-03T02:07:05.452Z,51.52
2019-04-03T02:09:33.355Z,51.96
2019-04-03T02:12:01.485Z,52.20
2019-04-03T02:14:29.490Z,52.58
2019-04-03T02:16:57.499Z,52.59
2019-04-03T02:19:26.586Z,52.60
2019-04-03T02:21:54.897Z,52.78
2019-04-03T02:24:22.968Z,52.27
2019-04-03T02:26:50.954Z,52.43
2019-04-03T02:29:18.890Z,52.48
2019-04-03T02:31:47.149Z,52.81
2019-04-03T02:34:15.216Z,52.66
2019-04-03T02:36:44.907Z,52.81
2019-04-03T02:39:13.156Z,52.73
2019-04-03T02:41:41.138Z,52.85
2019-04-03T02:44:09.105Z,52.98
2019-04-03T02:46:37.178Z,53.20
2019-04-03T02:49:05.136Z,53.64
2019-04-03T02:51:33.341Z,53.41
2019-04-03T02:54:02.550Z,53.15
2019-04-03T02:56:31.061Z,53.68
2019-04-03T02:58:59.055Z,53.38
2019-04-03T03:01:27.478Z,53.39
2019-04-03T03:03:55.734Z,53.57
2019-04-03T03:06:23.925Z,53.36
2019-04-03T03:08:52.138Z,53.37
2019-04-03T03:11:24.508Z,53.63
2019-04-03T03:13:51.648Z,53.51
2019-04-03T03:16:20.774Z,53.75
2019-04-03T03:18:49.081Z,53.46
2019-04-03T03:21:18.374Z,53.60
2019-04-03T03:23:46.949Z,53.65
2019-04-03T03:26:15.371Z,53.49
2019-04-03T03:28:46.235Z,53.57
2019-04-03T03:31:14.385Z,53.71
2019-04-03T03:33:43.105Z,53.36
2019-04-03T03:36:20.162Z,53.58
2019-04-03T03:38:42.452Z,53.61
2019-04-03T03:41:11.146Z,53.90
2019-04-03T03:43:39.567Z,53.84
2019-04-03T03:46:09.485Z,54.29
2019-04-03T03:48:42.520Z,54.49
2019-04-03T03:51:09.530Z,54.71
2019-04-03T03:53:37.929Z,54.82
2019-04-03T03:56:06.730Z,54.80
2019-04-03T03:58:34.860Z,54.81
2019-04-03T04:01:03.001Z,54.85
2019-04-03T04:03:31.588Z,54.76
2019-04-03T04:05:59.997Z,54.85
2019-04-03T04:08:29.166Z,55.16
2019-04-03T04:10:59.446Z,55.55
2019-04-03T04:13:27.730Z,55.43
2019-04-03T04:15:56.535Z,55.48
2019-04-03T04:18:25.190Z,56.03
2019-04-03T04:20:53.272Z,55.94
2019-04-03T04:23:24.785Z,56.46
2019-04-03T04:25:53.566Z,56.38
2019-04-03T04:28:22.761Z,56.16
2019-04-03T04:30:51.448Z,56.46
2019-04-03T04:33:19.749Z,56.54
2019-04-03T04:35:47.845Z,56.20
2019-04-03T04:38:15.939Z,56.62
2019-04-03T04:40:44.744Z,57.20
2019-04-03T04:43:13.029Z,56.86
2019-04-03T04:45:42.696Z,56.91
2019-04-03T04:48:10.920Z,56.23
2019-04-03T04:50:39.382Z,56.56
2019-04-03T04:53:07.832Z,56.26
2019-04-03T04:55:36.018Z,56.03
2019-04-03T04:58:05.274Z,55.70
2019-04-03T05:00:33.581Z,55.40
2019-04-03T05:03:02.121Z,55.22
2019-04-03T05:05:31.155Z,54.81
2019-04-03T05:08:01.400Z,54.43
2019-04-03T05:10:31.970Z,54.38
2019-04-03T05:13:00.128Z,54.02
2019-04-03T05:15:35.431Z,53.83
2019-04-03T05:18:04.097Z,53.60
2019-04-03T05:20:32.263Z,53.76
2019-04-03T05:23:00.400Z,53.68
2019-04-03T05:25:29.855Z,53.41
2019-04-03T05:27:58.363Z,53.29
2019-04-03T05:30:30.018Z,53.18
2019-04-03T05:32:58.546Z,53.24
2019-04-03T05:35:26.788Z,52.91
2019-04-03T05:37:54.939Z,52.92
2019-04-03T05:40:25.611Z,52.67
2019-04-03T05:42:52.786Z,52.74
2019-04-03T05:45:20.638Z,52.29
2019-04-03T05:47:48.845Z,51.59
2019-04-03T05:50:17.000Z,51.76
2019-04-03T05:52:45.017Z,51.27
2019-04-03T05:55:13.112Z,50.33
2019-04-03T05:57:41.401Z,49.85
2019-04-03T06:00:10.114Z,49.46
2019-04-03T06:02:38.467Z,49.29
2019-04-03T06:05:07.257Z,48.88
2019-04-03T06:07:35.678Z,48.84
2019-04-03T06:10:03.827Z,48.62
2019-04-03T06:12:32.024Z,48.06
2019-04-03T06:15:04.499Z,48.22
2019-04-03T06:17:35.918Z,48.17
2019-04-03T06:20:04.657Z,48.40
2019-04-03T06:22:32.725Z,48.42
2019-04-03T06:25:01.432Z,48.08
2019-04-03T06:27:29.254Z,47.98
2019-04-03T06:29:57.286Z,47.74
2019-04-03T06:32:28.593Z,47.84
2019-04-03T06:34:55.495Z,47.55
2019-04-03T06:37:30.324Z,47.55
2019-04-03T06:39:58.380Z,47.67
2019-04-03T06:42:26.452Z,47.32
2019-04-03T06:44:54.734Z,47.24
2019-04-03T06:47:22.863Z,47.42
2019-04-03T06:49:52.299Z,47.04
2019-04-03T06:52:21.473Z,47.36
2019-04-03T06:54:50.192Z,47.13
2019-04-03T06:57:18.587Z,46.92
2019-04-03T06:59:48.696Z,46.95
2019-04-03T07:02:16.800Z,46.73
2019-04-03T07:04:44.946Z,46.71
2019-04-03T07:07:13.065Z,46.35
2019-04-03T07:09:41.955Z,45.76
2019-04-03T07:12:09.890Z,45.82
2019-04-03T07:14:37.887Z,45.40
2019-04-03T07:17:06.167Z,45.10
2019-04-03T07:19:43.257Z,45.08
2019-04-03T07:22:11.177Z,44.91
2019-04-03T07:24:39.378Z,44.96
2019-04-03T07:27:07.336Z,44.45
2019-04-03T07:29:35.488Z,44.80
2019-04-03T07:32:04.964Z,44.40
2019-04-03T07:34:34.461Z,44.59
2019-04-03T07:37:02.699Z,44.40
2019-04-03T07:39:36.810Z,44.58
2019-04-03T07:42:04.842Z,48.19
2019-04-03T07:44:32.848Z,46.71
2019-04-03T07:47:04.009Z,45.78
2019-04-03T07:49:32.457Z,46.33
2019-04-03T07:52:00.541Z,44.65
2019-04-03T07:54:28.623Z,44.32
2019-04-03T07:56:57.791Z,43.74
2019-04-03T07:59:26.344Z,43.92
2019-04-03T08:01:54.614Z,44.07
2019-04-03T08:04:25.097Z,42.99
2019-04-03T08:06:52.555Z,42.34
2019-04-03T08:09:20.631Z,42.02
2019-04-03T08:11:48.897Z,42.10
2019-04-03T08:14:19.207Z,42.41
2019-04-03T08:16:48.153Z,41.59
2019-04-03T08:19:16.880Z,41.59
2019-04-03T08:21:44.833Z,42.27
2019-04-03T08:24:12.847Z,42.19
2019-04-03T08:26:40.735Z,42.19
2019-04-03T08:29:08.983Z,42.35
2019-04-03T08:31:36.945Z,42.40
2019-04-03T08:34:15.047Z,42.73
2019-04-03T08:36:35.292Z,42.07
2019-04-03T08:39:05.614Z,42.18
2019-04-03T08:41:36.701Z,42.18
2019-04-03T08:44:07.363Z,42.00
2019-04-03T08:46:33.969Z,41.21
2019-04-03T08:49:02.058Z,41.45
2019-04-03T08:51:30.237Z,41.45
2019-04-03T08:53:59.774Z,41.90
2019-04-03T08:56:27.869Z,41.34
2019-04-03T08:58:57.373Z,41.34
2019-04-03T09:01:25.871Z,41.28
2019-04-03T09:03:53.957Z,41.49
2019-04-03T09:06:22.520Z,41.84
2019-04-03T09:08:51.517Z,42.08
2019-04-03T09:11:19.587Z,42.08
2019-04-03T09:13:47.698Z,42.40
2019-04-03T09:16:15.658Z,41.60
2019-04-03T09:18:43.709Z,41.78
2019-04-03T09:21:14.288Z,41.60
2019-04-03T09:23:41.512Z,41.90
2019-04-03T09:26:11.355Z,41.68
2019-04-03T09:28:41.144Z,41.34
2019-04-03T09:31:09.480Z,40.20
2019-04-03T09:33:37.503Z,40.44
2019-04-03T09:36:06.285Z,40.25
2019-04-03T09:38:36.024Z,39.72
2019-04-03T09:41:04.277Z,39.76
2019-04-03T09:43:32.177Z,39.54
2019-04-03T09:46:01.070Z,39.10
2019-04-03T09:48:29.466Z,38.88
2019-04-03T09:50:57.858Z,39.35
2019-04-03T09:53:26.677Z,39.27
2019-04-03T09:55:54.858Z,39.34
2019-04-03T09:58:22.796Z,39.46
2019-04-03T10:00:50.754Z,39.09
2019-04-03T10:03:18.788Z,39.09
2019-04-03T10:05:46.862Z,39.09
2019-04-03T10:08:14.962Z,38.80
2019-04-03T10:10:43.151Z,38.37
2019-04-03T10:13:11.161Z,38.32
2019-04-03T10:15:39.383Z,38.28
2019-04-03T10:18:09.539Z,38.03
2019-04-03T10:20:37.735Z,37.84
2019-04-03T10:23:05.757Z,37.98
2019-04-03T10:25:46.896Z,37.19
2019-04-03T10:28:15.336Z,36.43
2019-04-03T10:30:43.687Z,36.23
2019-04-03T10:33:12.579Z,36.30
2019-04-03T10:35:40.521Z,36.30
2019-04-03T10:38:08.620Z,35.71
2019-04-03T10:40:36.911Z,35.26
2019-04-03T10:43:06.368Z,35.52
2019-04-03T10:45:34.944Z,35.68
2019-04-03T10:48:03.342Z,35.16
2019-04-03T10:50:31.644Z,34.67
2019-04-03T10:53:00.307Z,34.70
2019-04-03T10:55:29.446Z,34.68
2019-04-03T10:57:57.684Z,34.86
2019-04-03T11:00:28.645Z,34.59
2019-04-03T11:02:55.671Z,34.29
2019-04-03T11:05:23.881Z,33.92
2019-04-03T11:07:51.988Z,34.09
2019-04-03T11:10:23.450Z,34.05
2019-04-03T11:12:50.106Z,34.03
2019-04-03T11:15:18.211Z,34.08
2019-04-03T11:17:48.480Z,33.51
2019-04-03T11:20:17.776Z,33.37
2019-04-03T11:22:46.255Z,33.25
2019-04-03T11:25:16.435Z,33.44
2019-04-03T11:27:47.490Z,32.89
2019-04-03T11:30:20.237Z,33.13
2019-04-03T11:32:48.241Z,32.93
2019-04-03T11:35:16.431Z,33.45
2019-04-03T11:37:44.897Z,33.76
2019-04-03T11:40:13.852Z,33.78
2019-04-03T11:42:42.243Z,33.41
2019-04-03T11:45:11.347Z,33.53
2019-04-03T11:47:40.394Z,33.79
2019-04-03T11:50:09.549Z,33.18
2019-04-03T11:52:37.781Z,33.17
2019-04-03T11:55:09.956Z,33.64
2019-04-03T11:57:37.459Z,33.21
2019-04-03T12:00:09.214Z,33.01
2019-04-03T12:02:39.090Z,33.28
2019-04-03T12:05:07.673Z,33.45
2019-04-03T12:07:36.605Z,33.72
2019-04-03T12:10:04.975Z,32.83
2019-04-03T12:12:33.909Z,33.09
2019-04-03T12:15:02.307Z,33.05
2019-04-03T12:17:30.889Z,32.85
2019-04-03T12:19:58.986Z,33.32
2019-04-03T12:22:28.545Z,33.04
2019-04-03T12:24:56.441Z,33.13
2019-04-03T12:27:24.394Z,32.77
2019-04-03T12:29:54.315Z,32.51
2019-04-03T12:32:22.652Z,32.14
2019-04-03T12:34:51.429Z,32.48
2019-04-03T12:37:19.695Z,32.63
2019-04-03T12:39:48.382Z,31.99
2019-04-03T12:42:17.255Z,31.65
2019-04-03T12:44:45.655Z,31.41
2019-04-03T12:51:56.270Z,31.60
2019-04-03T12:54:24.410Z,31.64
2019-04-03T12:56:52.869Z,31.94
2019-04-03T12:59:21.067Z,31.85
2019-04-03T13:01:50.160Z,31.71
2019-04-03T13:04:19.848Z,31.70
2019-04-03T13:06:48.228Z,31.14
2019-04-03T13:09:16.237Z,31.35
2019-04-03T13:11:44.301Z,31.25
2019-04-03T13:14:22.570Z,30.26
2019-04-03T13:16:42.591Z,29.92
2019-04-03T13:19:10.542Z,30.15
2019-04-03T13:21:39.786Z,30.20
2019-04-03T13:24:10.736Z,30.62
2019-04-03T13:26:38.183Z,31.04
2019-04-03T13:29:08.164Z,29.98
2019-04-03T13:31:35.836Z,29.77
2019-04-03T13:34:05.538Z,30.24
2019-04-03T13:36:33.302Z,29.90
2019-04-03T13:39:01.601Z,30.03
2019-04-03T13:41:29.566Z,30.08
2019-04-03T13:43:57.791Z,29.64
2019-04-03T13:46:25.719Z,29.30
2019-04-03T13:48:53.551Z,29.72
2019-04-03T13:51:21.476Z,29.30
2019-04-03T13:53:50.916Z,29.12
2019-04-03T13:56:22.705Z,29.27
2019-04-03T13:58:52.475Z,29.31
2019-04-03T14:01:19.703Z,29.11
2019-04-03T14:03:48.158Z,28.69
2019-04-03T14:06:17.626Z,28.48
2019-04-03T14:08:46.068Z,28.80
2019-04-03T14:11:14.533Z,28.88
2019-04-03T14:13:43.582Z,28.70
2019-04-03T14:16:20.298Z,28.97
2019-04-03T14:18:42.436Z,29.25
2019-04-03T14:21:10.784Z,29.44
2019-04-03T14:23:40.693Z,28.98
2019-04-03T14:26:12.965Z,29.46
2019-04-03T14:28:38.626Z,28.95
2019-04-03T14:31:07.212Z,29.21
2019-04-03T14:33:48.667Z,29.29
2019-04-03T14:36:19.156Z,29.05
2019-04-03T14:38:46.964Z,29.40
2019-04-03T14:41:17.257Z,29.17
2019-04-03T14:43:44.959Z,28.44
2019-04-03T14:46:17.283Z,28.90
2019-04-03T14:48:43.701Z,28.57
2019-04-03T14:51:12.253Z,29.31
2019-04-03T14:53:40.385Z,29.56
2019-04-03T14:56:08.310Z,29.28
2019-04-03T14:58:36.202Z,29.51
2019-04-03T15:01:04.395Z,29.18
2019-04-03T15:03:33.759Z,29.65
2019-04-03T15:06:02.600Z,29.23
2019-04-03T15:08:30.475Z,28.78
2019-04-03T15:10:58.312Z,28.97
2019-04-03T15:13:26.640Z,29.08
2019-04-03T15:15:54.640Z,29.18
2019-04-03T15:18:23.348Z,29.07
2019-04-03T15:20:51.483Z,29.75
2019-04-03T15:23:19.769Z,30.06
2019-04-03T15:25:52.104Z,30.27
2019-04-03T15:28:18.547Z,30.04
2019-04-03T15:30:46.971Z,30.08
2019-04-03T15:33:15.118Z,30.05
2019-04-03T15:35:44.151Z,30.13
2019-04-03T15:38:13.436Z,29.33
2019-04-03T15:40:42.191Z,28.82
2019-04-03T15:43:11.650Z,28.59
2019-04-03T15:45:40.016Z,29.17
2019-04-03T15:48:08.079Z,28.73
2019-04-03T15:50:37.966Z,28.68
2019-04-03T15:53:06.843Z,28.82
2019-04-03T15:55:37.965Z,28.95
2019-04-03T15:58:06.205Z,28.96
2019-04-03T16:00:35.771Z,29.06
2019-04-03T16:03:04.223Z,29.57
2019-04-03T16:05:35.708Z,29.52
2019-04-03T16:08:02.025Z,29.37
2019-04-03T16:10:30.423Z,29.55
2019-04-03T16:12:58.885Z,29.58
2019-04-03T16:15:28.897Z,29.64
2019-04-03T16:17:56.809Z,30.08
2019-04-03T16:20:25.313Z,30.15
2019-04-03T16:22:53.648Z,29.91
2019-04-03T16:25:22.263Z,29.87
2019-04-03T16:27:51.869Z,29.81
2019-04-03T16:30:20.631Z,30.14
2019-04-03T16:32:48.652Z,30.15
2019-04-03T16:35:17.419Z,30.40
2019-04-03T16:37:45.497Z,30.38
2019-04-03T16:40:14.138Z,30.79
2019-04-03T16:42:42.024Z,30.86
2019-04-03T16:45:10.632Z,31.17
2019-04-03T16:47:39.086Z,30.92
2019-04-03T16:50:07.902Z,31.19
2019-04-03T16:52:37.672Z,31.42
2019-04-03T16:55:06.046Z,31.48
2019-04-03T16:57:34.575Z,31.55
2019-04-03T17:00:02.951Z,31.79
2019-04-03T17:02:30.807Z,31.96
2019-04-03T17:04:58.783Z,32.08
2019-04-03T17:07:26.695Z,32.20
2019-04-03T17:10:00.608Z,32.29
2019-04-03T17:12:28.705Z,32.57
2019-04-03T17:14:56.595Z,32.72
2019-04-03T17:17:24.935Z,32.41
2019-04-03T17:19:52.799Z,32.72
2019-04-03T17:22:21.502Z,32.92
2019-04-03T17:24:53.975Z,32.99
2019-04-03T17:27:20.273Z,32.86
2019-04-03T17:29:48.144Z,33.05
2019-04-03T17:32:16.130Z,32.95
2019-04-03T17:34:44.965Z,33.08
2019-04-03T17:37:12.769Z,33.07
2019-04-03T17:39:40.640Z,33.02
2019-04-03T17:42:09.166Z,33.33
2019-04-03T17:44:38.436Z,33.39
2019-04-03T17:47:06.526Z,33.37
2019-04-03T17:49:34.408Z,33.39
2019-04-03T17:52:04.685Z,33.50
2019-04-03T17:54:32.002Z,33.76
2019-04-03T17:56:59.808Z,34.02
2019-04-03T17:59:27.691Z,33.87
2019-04-03T18:01:55.733Z,33.98
2019-04-03T18:04:23.997Z,34.01
2019-04-03T18:06:51.956Z,34.24
2019-04-03T18:09:19.817Z,34.57
2019-04-03T18:11:50.775Z,34.74
2019-04-03T18:14:18.638Z,34.78
2019-04-03T18:16:46.687Z,34.96
2019-04-03T18:19:15.069Z,34.60
2019-04-03T18:21:43.197Z,34.83
2019-04-03T18:24:11.065Z,35.06
2019-04-03T18:26:38.984Z,35.37
2019-04-03T18:29:07.211Z,35.44
2019-04-03T18:31:35.116Z,35.34
2019-04-03T18:34:03.172Z,35.43
2019-04-03T18:36:31.414Z,35.69
2019-04-03T18:38:59.395Z,35.80
2019-04-03T18:41:27.713Z,36.35
2019-04-03T18:43:57.196Z,36.33
2019-04-03T18:46:31.927Z,36.15
2019-04-03T18:49:00.864Z,36.36
2019-04-03T18:51:24.708Z,36.66
2019-04-03T18:53:55.856Z,36.66
2019-04-03T18:56:23.726Z,37.16
2019-04-03T18:58:54.750Z,37.17
2019-04-03T19:01:21.525Z,37.29
2019-04-03T19:03:51.144Z,37.37
2019-04-03T19:06:19.138Z,37.41
2019-04-03T19:08:49.813Z,37.75
2019-04-03T19:11:16.660Z,37.89
2019-04-03T19:13:47.525Z,38.19
2019-04-03T19:16:24.010Z,38.39
2019-04-03T19:18:44.573Z,38.18
2019-04-03T19:21:23.963Z,38.43
2019-04-03T19:23:49.672Z,38.65
2019-04-03T19:26:12.830Z,38.56
2019-04-03T19:28:40.849Z,38.80
2019-04-03T19:31:09.281Z,38.76
2019-04-03T19:33:37.520Z,39.01
2019-04-03T19:36:05.477Z,38.98
2019-04-03T19:38:35.568Z,39.08
2019-04-03T19:41:03.126Z,39.24
2019-04-03T19:43:30.986Z,39.13
2019-04-03T19:45:58.890Z,39.16
2019-04-03T19:48:27.010Z,39.16
2019-04-03T19:50:55.110Z,39.22
2019-04-03T19:53:23.700Z,39.46
2019-04-03T19:55:54.534Z,39.66
2019-04-03T19:58:21.455Z,39.54
2019-04-03T20:00:49.441Z,39.75
2019-04-03T20:03:18.320Z,39.94
2019-04-03T20:05:50.109Z,40.25
2019-04-03T20:08:18.335Z,40.27
2019-04-03T20:10:49.016Z,40.10
2019-04-03T20:13:16.445Z,40.13
2019-04-03T20:15:44.440Z,40.26
2019-04-03T20:18:12.412Z,40.35
2019-04-03T20:20:40.298Z,40.35
2019-04-03T20:23:10.460Z,40.32
2019-04-03T20:25:38.493Z,40.10
2019-04-03T20:28:06.609Z,40.16
2019-04-03T20:30:34.555Z,40.16
2019-04-03T20:33:02.661Z,40.09
2019-04-03T20:35:31.251Z,40.02
2019-04-03T20:37:59.206Z,39.63
2019-04-03T20:40:27.067Z,39.63
2019-04-03T20:42:54.953Z,40.17
2019-04-03T20:45:22.880Z,39.97
2019-04-03T20:47:50.653Z,39.80
2019-04-03T20:50:18.684Z,40.40
2019-04-03T20:52:47.004Z,40.16
2019-04-03T20:55:15.012Z,40.24
2019-04-03T20:57:54.975Z,39.99
2019-04-03T21:00:18.076Z,40.34
2019-04-03T21:02:44.365Z,40.18
2019-04-03T21:05:12.487Z,40.61
2019-04-03T21:07:40.380Z,40.57
2019-04-03T21:10:08.473Z,40.29
2019-04-03T21:12:36.527Z,40.09
2019-04-03T21:15:08.696Z,40.04
2019-04-03T21:17:35.225Z,40.25
2019-04-03T21:20:03.386Z,40.41
2019-04-03T21:22:34.885Z,40.41
2019-04-03T21:25:05.249Z,40.56
2019-04-03T21:27:33.042Z,40.29
2019-04-03T21:30:00.985Z,40.02
2019-04-03T21:32:29.472Z,40.21
2019-04-03T21:34:57.642Z,40.63
2019-04-03T21:37:25.416Z,40.56
2019-04-03T21:39:53.952Z,40.60
2019-04-03T21:42:21.818Z,40.71
2019-04-03T21:44:49.762Z,40.65
2019-04-03T21:47:17.544Z,40.62
2019-04-03T21:49:47.420Z,40.37
2019-04-03T21:52:15.200Z,40.31
2019-04-03T21:54:43.103Z,40.38
2019-04-03T21:57:11.084Z,40.38
2019-04-03T21:59:39.882Z,40.49
2019-04-03T22:02:08.973Z,40.49
2019-04-03T22:04:36.911Z,40.65
2019-04-03T22:07:04.704Z,40.54
2019-04-03T22:09:32.635Z,40.84
2019-04-03T22:12:00.450Z,40.84
2019-04-03T22:14:28.997Z,40.89
2019-04-03T22:16:56.776Z,40.99
2019-04-03T22:19:27.279Z,40.84
2019-04-03T22:21:56.301Z,40.97
2019-04-03T22:24:26.929Z,40.93
2019-04-03T22:26:54.918Z,41.29
2019-04-03T22:29:22.764Z,41.32
2019-04-03T22:31:53.721Z,41.28
2019-04-03T22:34:21.319Z,41.57
2019-04-03T22:36:49.972Z,41.67
2019-04-03T22:39:17.760Z,41.86
2019-04-03T22:41:45.703Z,42.01
2019-04-03T22:44:16.739Z,42.03
2019-04-03T22:46:43.304Z,42.05
2019-04-03T22:49:11.186Z,42.32
2019-04-03T22:51:39.216Z,42.27
2019-04-03T22:54:07.164Z,42.47
2019-04-03T22:56:35.096Z,42.34
2019-04-03T22:59:02.981Z,42.80
2019-04-03T23:01:30.815Z,42.80
2019-04-03T23:03:59.091Z,42.81
2019-04-03T23:06:27.022Z,43.10
2019-04-03T23:08:54.796Z,43.54
2019-04-03T23:11:22.720Z,43.05
2019-04-03T23:13:50.605Z,43.05
2019-04-03T23:16:18.543Z,43.58
2019-04-03T23:18:46.885Z,43.58
2019-04-03T23:21:15.458Z,43.61
2019-04-03T23:23:43.517Z,43.61
2019-04-03T23:26:11.457Z,43.74
2019-04-03T23:28:39.240Z,43.82
2019-04-03T23:31:07.084Z,44.00
2019-04-03T23:33:35.007Z,44.00
2019-04-03T23:36:02.930Z,44.22
2019-04-03T23:38:30.934Z,44.16
2019-04-03T23:40:58.787Z,44.38
2019-04-03T23:43:26.773Z,44.38
2019-04-03T23:45:54.823Z,44.54
2019-04-03T23:48:23.116Z,44.42
2019-04-03T23:50:52.702Z,44.42
2019-04-03T23:53:21.139Z,43.90
2019-04-03T23:55:49.027Z,43.90
2019-04-03T23:58:16.802Z,44.54
